createdAt,value
2023-11-01T00:01:36.381Z,94294.69
2023-11-01T00:03:38.828Z,94296.97
2023-11-01T00:05:40.731Z,94302.03
2023-11-01T00:07:42.556Z,94309.94
2023-11-01T00:09:44.481Z,94318.19
2023-11-01T00:11:49.494Z,94318.84
2023-11-01T00:13:51.708Z,94319.53
2023-11-01T00:15:53.455Z,94327.66
2023-11-01T00:17:56.708Z,94338.22
2023-11-01T00:19:58.557Z,94332.53
2023-11-01T00:22:00.147Z,94334.16
2023-11-01T00:24:02.147Z,94330.31
2023-11-01T00:26:04.006Z,94334.38
2023-11-01T00:28:05.675Z,94342.91
2023-11-01T00:30:08.360Z,94345.34
2023-11-01T00:32:10.424Z,94328.06
2023-11-01T00:34:12.208Z,94309.94
2023-11-01T00:36:14.013Z,94323.59
2023-11-01T00:38:20.633Z,94326.81
2023-11-01T00:40:22.286Z,94316.25
2023-11-01T00:42:23.953Z,94309.28
2023-11-01T00:44:25.739Z,94315.97
2023-11-01T00:46:27.504Z,94314.09
2023-11-01T00:48:29.561Z,94326.69
2023-11-01T00:50:31.966Z,94330.13
2023-11-01T00:52:33.654Z,94339.28
2023-11-01T00:54:35.259Z,94335.84
2023-11-01T00:56:37.205Z,94341.09
2023-11-01T00:58:39.236Z,94338.34
2023-11-01T01:00:42.157Z,94343.47
2023-11-01T01:02:45.033Z,94343.22
2023-11-01T01:04:48.080Z,94337.47
2023-11-01T01:06:49.768Z,94334.75
2023-11-01T01:08:52.541Z,94320.50
2023-11-01T01:10:54.517Z,94314.97
2023-11-01T01:12:56.475Z,94312.56
2023-11-01T01:14:58.788Z,94321.16
2023-11-01T01:17:00.663Z,94328.44
2023-11-01T01:19:02.678Z,94336.72
2023-11-01T01:21:04.563Z,94335.06
2023-11-01T01:23:06.324Z,94333.13
2023-11-01T01:25:08.369Z,94330.78
2023-11-01T01:27:10.059Z,94326.69
2023-11-01T01:29:11.749Z,94321.09
2023-11-01T01:31:15.261Z,94311.38
2023-11-01T01:33:17.077Z,94311.44
2023-11-01T01:35:19.474Z,94308.25
2023-11-01T01:37:21.082Z,94316.41
2023-11-01T01:39:24.069Z,94313.38
2023-11-01T01:41:25.730Z,94316.44
2023-11-01T01:43:28.887Z,94313.22
2023-11-01T01:45:30.688Z,94325.00
2023-11-01T01:47:34.619Z,94326.47
2023-11-01T01:49:43.331Z,94334.78
2023-11-01T01:51:47.405Z,94336.72
2023-11-01T01:53:49.753Z,94329.75
2023-11-01T01:55:52.205Z,94322.81
2023-11-01T01:57:53.985Z,94325.81
2023-11-01T01:59:56.479Z,94325.66
2023-11-01T02:01:58.525Z,94331.97
2023-11-01T02:04:00.226Z,94337.16
2023-11-01T02:06:03.833Z,94334.69
2023-11-01T02:08:05.796Z,94336.22
2023-11-01T02:10:16.301Z,94334.72
2023-11-01T02:12:18.348Z,94327.09
2023-11-01T02:14:22.638Z,94334.47
2023-11-01T02:16:24.630Z,94331.09
2023-11-01T02:18:26.260Z,94336.03
2023-11-01T02:20:28.307Z,94347.13
2023-11-01T02:22:30.358Z,94348.06
2023-11-01T02:24:32.162Z,94345.19
2023-11-01T02:26:34.087Z,94350.53
2023-11-01T02:28:36.302Z,94343.91
2023-11-01T02:30:39.352Z,94348.25
2023-11-01T02:32:41.288Z,94345.44
2023-11-01T02:34:43.464Z,94341.03
2023-11-01T02:36:45.297Z,94345.03
2023-11-01T02:38:47.038Z,94353.47
2023-11-01T02:40:49.300Z,94355.44
2023-11-01T02:42:56.445Z,94360.34
2023-11-01T02:44:58.631Z,94354.94
2023-11-01T02:47:00.316Z,94351.78
2023-11-01T02:49:05.323Z,94348.59
2023-11-01T02:51:07.147Z,94350.06
2023-11-01T02:53:08.863Z,94358.63
2023-11-01T02:55:12.719Z,94364.94
2023-11-01T02:57:14.362Z,94367.00
2023-11-01T02:59:16.630Z,94362.97
2023-11-01T03:01:18.792Z,94371.91
2023-11-01T03:03:20.536Z,94361.78
2023-11-01T03:05:23.953Z,94362.97
2023-11-01T03:07:25.817Z,94361.78
2023-11-01T03:09:27.487Z,94359.13
2023-11-01T03:11:29.266Z,94359.94
2023-11-01T03:13:31.476Z,94359.56
2023-11-01T03:15:33.203Z,94366.28
2023-11-01T03:17:36.533Z,94379.91
2023-11-01T03:19:38.563Z,94389.88
2023-11-01T03:21:42.632Z,94388.66
2023-11-01T03:23:44.401Z,94385.59
2023-11-01T03:25:46.179Z,94382.78
2023-11-01T03:27:47.871Z,94379.69
2023-11-01T03:29:49.705Z,94379.47
2023-11-01T03:31:51.644Z,94377.44
2023-11-01T03:33:53.433Z,94368.94
2023-11-01T03:35:55.470Z,94371.38
2023-11-01T03:37:57.159Z,94368.13
2023-11-01T03:39:58.864Z,94373.41
2023-11-01T03:42:06.001Z,94365.47
2023-11-01T03:44:08.207Z,94356.31
2023-11-01T03:46:10.128Z,94356.50
2023-11-01T03:48:12.072Z,94355.25
2023-11-01T03:50:13.911Z,94363.78
2023-11-01T03:52:16.021Z,94355.84
2023-11-01T03:54:17.911Z,94361.91
2023-11-01T03:56:21.971Z,94364.91
2023-11-01T03:58:23.841Z,94362.41
2023-11-01T04:00:25.533Z,94366.25
2023-11-01T04:02:27.324Z,94362.19
2023-11-01T04:04:29.434Z,94362.63
2023-11-01T04:06:33.503Z,94363.44
2023-11-01T04:08:35.192Z,94373.78
2023-11-01T04:10:36.881Z,94379.22
2023-11-01T04:12:38.752Z,94383.44
2023-11-01T04:14:40.869Z,94390.41
2023-11-01T04:16:42.726Z,94387.28
2023-11-01T04:18:44.595Z,94390.56
2023-11-01T04:20:46.473Z,94378.63
2023-11-01T04:22:48.213Z,94377.22
2023-11-01T04:24:50.646Z,94379.09
2023-11-01T04:26:53.686Z,94392.72
2023-11-01T04:28:55.539Z,94389.22
2023-11-01T04:30:57.847Z,94387.97
2023-11-01T04:33:00.963Z,94383.09
2023-11-01T04:35:04.002Z,94388.34
2023-11-01T04:37:05.874Z,94390.41
2023-11-01T04:39:07.639Z,94394.69
2023-11-01T04:41:12.580Z,94391.25
2023-11-01T04:43:15.907Z,94393.53
2023-11-01T04:45:17.757Z,94397.34
2023-11-01T04:47:19.583Z,94398.09
2023-11-01T04:49:25.204Z,94392.81
2023-11-01T04:51:26.896Z,94388.34
2023-11-01T04:53:28.779Z,94392.06
2023-11-01T04:55:31.008Z,94392.06
2023-11-01T04:57:37.394Z,94390.59
2023-11-01T04:59:39.115Z,94396.72
2023-11-01T05:01:40.886Z,94394.06
2023-11-01T05:03:42.753Z,94393.44
2023-11-01T05:05:44.750Z,94406.63
2023-11-01T05:07:46.694Z,94411.28
2023-11-01T05:09:48.776Z,94414.53
2023-11-01T05:11:51.681Z,94410.88
2023-11-01T05:13:56.151Z,94411.16
2023-11-01T05:15:57.816Z,94418.44
2023-11-01T05:18:00.960Z,94422.50
2023-11-01T05:20:05.283Z,94425.31
2023-11-01T05:22:07.424Z,94434.38
2023-11-01T05:24:13.511Z,94436.22
2023-11-01T05:26:17.916Z,94440.91
2023-11-01T05:28:19.880Z,94442.38
2023-11-01T05:30:22.276Z,94441.44
2023-11-01T05:32:23.943Z,94442.13
2023-11-01T05:34:25.703Z,94445.59
2023-11-01T05:36:29.448Z,94449.31
2023-11-01T05:38:31.202Z,94453.38
2023-11-01T05:40:32.904Z,94459.66
2023-11-01T05:42:34.605Z,94457.25
2023-11-01T05:44:36.516Z,94458.34
2023-11-01T05:46:40.855Z,94463.84
2023-11-01T05:48:43.589Z,94465.41
2023-11-01T05:50:45.918Z,94464.34
2023-11-01T05:52:47.689Z,94470.16
2023-11-01T05:54:51.660Z,94466.75
2023-11-01T05:56:55.719Z,94472.25
2023-11-01T05:58:57.347Z,94475.38
2023-11-01T06:00:59.102Z,94474.84
2023-11-01T06:03:01.432Z,94469.06
2023-11-01T06:05:05.395Z,94472.16
2023-11-01T06:07:07.664Z,94479.56
2023-11-01T06:09:09.851Z,94482.44
2023-11-01T06:11:11.642Z,94482.09
2023-11-01T06:13:13.380Z,94477.09
2023-11-01T06:15:16.256Z,94478.78
2023-11-01T06:17:17.970Z,94481.44
2023-11-01T06:19:20.031Z,94485.72
2023-11-01T06:21:21.731Z,94482.91
2023-11-01T06:23:23.452Z,94475.63
2023-11-01T06:25:25.450Z,94477.66
2023-11-01T06:27:29.656Z,94477.91
2023-11-01T06:29:32.400Z,94476.28
2023-11-01T06:31:35.828Z,94483.41
2023-11-01T06:33:39.700Z,94483.44
2023-11-01T06:35:41.524Z,94484.28
2023-11-01T06:37:43.609Z,94486.91
2023-11-01T06:39:45.374Z,94493.22
2023-11-01T06:41:47.327Z,94487.47
2023-11-01T06:43:49.469Z,94498.28
2023-11-01T06:45:51.755Z,94494.41
2023-11-01T06:47:53.624Z,94493.16
2023-11-01T06:49:57.892Z,94497.13
2023-11-01T06:52:02.158Z,94503.38
2023-11-01T06:54:04.037Z,94501.00
2023-11-01T06:56:06.335Z,94502.50
2023-11-01T06:58:08.059Z,94508.31
2023-11-01T07:00:10.252Z,94511.94
2023-11-01T07:02:11.892Z,94511.06
2023-11-01T07:04:16.114Z,94519.44
2023-11-01T07:06:22.028Z,94515.75
2023-11-01T07:08:24.093Z,94511.78
2023-11-01T07:10:25.996Z,94511.00
2023-11-01T07:12:28.971Z,94519.78
2023-11-01T07:14:31.148Z,94517.41
2023-11-01T07:16:33.160Z,94522.06
2023-11-01T07:18:42.295Z,94521.63
2023-11-01T07:20:45.027Z,94520.00
2023-11-01T07:22:46.857Z,94523.94
2023-11-01T07:24:51.013Z,94524.16
2023-11-01T07:26:52.711Z,94531.28
2023-11-01T07:28:55.919Z,94529.63
2023-11-01T07:30:59.117Z,94534.22
2023-11-01T07:33:01.395Z,94531.13
2023-11-01T07:35:05.045Z,94529.13
2023-11-01T07:37:06.894Z,94529.16
2023-11-01T07:39:09.284Z,94531.44
2023-11-01T07:41:11.146Z,94530.84
2023-11-01T07:43:12.891Z,94537.19
2023-11-01T07:45:14.766Z,94537.06
2023-11-01T07:47:18.206Z,94548.84
2023-11-01T07:49:19.839Z,94543.91
2023-11-01T07:51:22.417Z,94547.41
2023-11-01T07:53:25.441Z,94545.00
2023-11-01T07:55:27.160Z,94548.25
2023-11-01T07:57:29.974Z,94544.81
2023-11-01T07:59:31.728Z,94554.38
2023-11-01T08:01:33.874Z,94559.47
2023-11-01T08:03:38.537Z,94566.59
2023-11-01T08:05:40.434Z,94569.03
2023-11-01T08:07:42.072Z,94563.75
2023-11-01T08:09:50.614Z,94566.19
2023-11-01T08:11:52.397Z,94563.94
2023-11-01T08:13:54.074Z,94566.19
2023-11-01T08:15:55.761Z,94557.00
2023-11-01T08:17:57.693Z,94557.41
2023-11-01T08:20:02.529Z,94569.00
2023-11-01T08:22:07.054Z,94578.72
2023-11-01T08:24:09.202Z,94572.97
2023-11-01T08:26:17.689Z,94574.66
2023-11-01T08:28:19.896Z,94589.72
2023-11-01T08:30:22.231Z,94592.38
2023-11-01T08:32:24.403Z,94585.03
2023-11-01T08:34:26.480Z,94601.59
2023-11-01T08:36:28.188Z,94607.09
2023-11-01T08:38:30.366Z,94612.69
2023-11-01T08:40:32.167Z,94614.50
2023-11-01T08:42:35.304Z,94618.63
2023-11-01T08:44:37.090Z,94615.81
2023-11-01T08:46:38.891Z,94621.22
2023-11-01T08:48:40.757Z,94631.97
2023-11-01T08:50:42.677Z,94624.00
2023-11-01T08:52:45.899Z,94621.25
2023-11-01T08:54:48.946Z,94622.81
2023-11-01T08:56:52.709Z,94627.09
2023-11-01T08:58:54.406Z,94627.41
2023-11-01T09:00:58.553Z,94630.94
2023-11-01T09:03:01.687Z,94632.28
2023-11-01T09:05:03.717Z,94630.38
2023-11-01T09:07:05.599Z,94634.78
2023-11-01T09:09:07.812Z,94625.47
2023-11-01T09:11:09.528Z,94625.66
2023-11-01T09:13:11.598Z,94628.31
2023-11-01T09:15:13.378Z,94629.53
2023-11-01T09:17:15.728Z,94633.81
2023-11-01T09:19:17.542Z,94634.53
2023-11-01T09:21:20.561Z,94638.78
2023-11-01T09:23:23.544Z,94641.91
2023-11-01T09:25:28.944Z,94636.75
2023-11-01T09:27:30.625Z,94645.28
2023-11-01T09:29:32.294Z,94652.13
2023-11-01T09:31:37.245Z,94645.22
2023-11-01T09:33:39.280Z,94649.19
2023-11-01T09:35:41.214Z,94648.66
2023-11-01T09:37:43.371Z,94637.50
2023-11-01T09:39:45.356Z,94640.94
2023-11-01T09:41:52.097Z,94641.75
2023-11-01T09:43:59.665Z,94624.63
2023-11-01T09:46:06.800Z,94629.56
2023-11-01T09:48:09.576Z,94623.84
2023-11-01T09:50:13.672Z,94633.03
2023-11-01T09:52:15.600Z,94616.22
2023-11-01T09:54:17.190Z,94620.47
2023-11-01T09:56:21.360Z,94625.97
2023-11-01T09:58:24.376Z,94615.31
2023-11-01T10:00:30.228Z,94618.44
2023-11-01T10:02:32.057Z,94613.63
2023-11-01T10:04:35.841Z,94603.75
2023-11-01T10:06:38.013Z,94608.22
2023-11-01T10:08:40.284Z,94610.03
2023-11-01T10:10:42.766Z,94596.66
2023-11-01T10:12:47.219Z,94604.88
2023-11-01T10:14:49.386Z,94606.97
2023-11-01T10:16:51.128Z,94603.81
2023-11-01T10:18:53.959Z,94600.47
2023-11-01T10:20:58.673Z,94604.31
2023-11-01T10:23:00.509Z,94603.03
2023-11-01T10:25:04.495Z,94605.28
2023-11-01T10:27:08.001Z,94601.34
2023-11-01T10:29:09.706Z,94598.84
2023-11-01T10:31:15.812Z,94597.19
2023-11-01T10:33:20.441Z,94592.03
2023-11-01T10:35:22.280Z,94597.69
2023-11-01T10:37:31.663Z,94594.72
2023-11-01T10:39:38.865Z,94599.03
2023-11-01T10:41:40.629Z,94600.44
2023-11-01T10:43:42.374Z,94603.59
2023-11-01T10:45:44.511Z,94603.94
2023-11-01T10:47:49.287Z,94595.13
2023-11-01T10:49:53.293Z,94607.50
2023-11-01T10:51:56.749Z,94588.25
2023-11-01T10:54:03.135Z,94589.53
2023-11-01T10:56:08.747Z,94576.69
2023-11-01T10:58:17.797Z,94581.66
2023-11-01T11:00:25.710Z,94580.63
2023-11-01T11:02:34.384Z,94572.28
2023-11-01T11:04:53.176Z,94568.94
2023-11-01T11:07:36.177Z,94575.84
2023-11-01T11:09:39.396Z,94567.38
2023-11-01T11:11:41.262Z,94569.69
2023-11-01T11:13:44.006Z,94575.03
2023-11-01T11:15:49.400Z,94577.50
2023-11-01T11:18:07.703Z,94572.28
2023-11-01T11:20:14.088Z,94568.44
2023-11-01T11:22:17.162Z,94566.97
2023-11-01T11:24:56.881Z,94565.34
2023-11-01T11:26:58.686Z,94575.09
2023-11-01T11:29:00.899Z,94560.69
2023-11-01T11:31:06.674Z,94564.13
2023-11-01T11:33:08.624Z,94562.84
2023-11-01T11:35:22.432Z,94555.75
2023-11-01T11:37:30.190Z,94560.06
2023-11-01T11:40:08.744Z,94558.84
2023-11-01T11:42:59.257Z,94550.72
2023-11-01T11:45:02.535Z,94558.47
2023-11-01T11:47:32.971Z,94565.38
2023-11-01T11:49:38.967Z,94549.69
2023-11-01T11:51:51.119Z,94547.03
2023-11-01T11:53:53.546Z,94550.44
2023-11-01T11:55:55.509Z,94541.69
2023-11-01T11:57:57.223Z,94547.59
2023-11-01T12:00:09.110Z,94550.47
2023-11-01T12:02:19.890Z,94547.22
2023-11-01T12:04:22.722Z,94547.00
2023-11-01T12:06:25.691Z,94540.47
2023-11-01T12:08:37.727Z,94549.28
2023-11-01T12:10:50.651Z,94536.84
2023-11-01T12:12:55.632Z,94543.59
2023-11-01T12:14:59.653Z,94547.25
2023-11-01T12:17:03.359Z,94546.03
2023-11-01T12:19:12.140Z,94550.91
2023-11-01T12:21:14.079Z,94548.88
2023-11-01T12:23:15.965Z,94538.50
2023-11-01T12:25:24.584Z,94543.56
2023-11-01T12:27:31.111Z,94540.94
2023-11-01T12:29:43.656Z,94540.94
2023-11-01T12:32:00.145Z,94546.03
2023-11-01T12:34:15.517Z,94540.31
2023-11-01T12:36:29.049Z,94542.16
2023-11-01T12:38:34.456Z,94538.69
2023-11-01T12:40:38.806Z,94551.72
2023-11-01T12:42:42.849Z,94540.94
2023-11-01T12:44:44.670Z,94545.63
2023-11-01T12:46:46.940Z,94546.56
2023-11-01T12:48:49.945Z,94543.16
2023-11-01T12:50:52.772Z,94546.03
2023-11-01T12:52:55.420Z,94539.91
2023-11-01T12:54:57.144Z,94543.16
2023-11-01T12:56:59.321Z,94538.47
2023-11-01T12:59:19.978Z,94540.91
2023-11-01T13:01:22.861Z,94530.34
2023-11-01T13:03:24.829Z,94522.19
2023-11-01T13:05:27.878Z,94525.81
2023-11-01T13:07:32.318Z,94537.06
2023-11-01T13:09:34.802Z,94524.97
2023-11-01T13:11:36.543Z,94530.69
2023-11-01T13:13:38.546Z,94525.44
2023-11-01T13:15:40.311Z,94517.31
2023-11-01T13:17:42.327Z,94511.63
2023-11-01T13:19:44.158Z,94515.06
2023-11-01T13:21:46.476Z,94497.75
2023-11-01T13:23:48.843Z,94493.88
2023-11-01T13:25:50.672Z,94501.66
2023-11-01T13:27:52.350Z,94504.69
2023-11-01T13:29:54.237Z,94493.72
2023-11-01T13:31:57.561Z,94503.47
2023-11-01T13:33:59.242Z,94497.34
2023-11-01T13:36:02.438Z,94512.16
2023-11-01T13:38:04.255Z,94504.81
2023-11-01T13:40:06.608Z,94507.84
2023-11-01T13:42:08.779Z,94507.63
2023-11-01T13:44:11.153Z,94507.63
2023-11-01T13:46:14.549Z,94492.31
2023-11-01T13:48:16.527Z,94486.63
2023-11-01T13:50:18.674Z,94486.59
2023-11-01T13:52:21.531Z,94490.63
2023-11-01T13:54:23.606Z,94497.88
2023-11-01T13:56:25.448Z,94498.06
2023-11-01T13:58:27.983Z,94500.94
2023-11-01T14:00:30.799Z,94497.84
2023-11-01T14:02:33.863Z,94498.00
2023-11-01T14:04:41.134Z,94501.81
2023-11-01T14:06:42.907Z,94508.38
2023-11-01T14:08:45.489Z,94503.81
2023-11-01T14:10:49.334Z,94500.63
2023-11-01T14:12:52.166Z,94500.00
2023-11-01T14:14:53.834Z,94493.88
2023-11-01T14:16:56.083Z,94492.63
2023-11-01T14:18:59.951Z,94491.63
2023-11-01T14:21:04.231Z,94491.63
2023-11-01T14:23:05.923Z,94496.13
2023-11-01T14:25:08.075Z,94486.16
2023-11-01T14:27:12.311Z,94487.22
2023-11-01T14:29:14.191Z,94488.81
2023-11-01T14:31:20.939Z,94491.03
2023-11-01T14:33:23.533Z,94483.88
2023-11-01T14:35:25.701Z,94492.03
2023-11-01T14:37:27.524Z,94487.72
2023-11-01T14:39:29.166Z,94490.97
2023-11-01T14:41:32.650Z,94486.50
2023-11-01T14:43:34.654Z,94490.13
2023-11-01T14:45:36.929Z,94483.38
2023-11-01T14:47:38.795Z,94482.78
2023-11-01T14:49:40.499Z,94474.22
2023-11-01T14:51:43.334Z,94479.72
2023-11-01T14:53:46.459Z,94469.97
2023-11-01T14:55:48.457Z,94480.34
2023-11-01T14:57:50.175Z,94480.97
2023-11-01T14:59:52.340Z,94486.28
2023-11-01T15:01:58.287Z,94481.81
2023-11-01T15:04:00.159Z,94486.75
2023-11-01T15:06:02.003Z,94474.94
2023-11-01T15:08:03.876Z,94473.72
2023-11-01T15:10:06.440Z,94465.97
2023-11-01T15:12:08.464Z,94469.88
2023-11-01T15:14:11.865Z,94463.53
2023-11-01T15:16:15.845Z,94477.03
2023-11-01T15:18:17.677Z,94475.81
2023-11-01T15:20:19.415Z,94482.91
2023-11-01T15:22:23.257Z,94482.09
2023-11-01T15:24:29.540Z,94471.94
2023-11-01T15:26:35.185Z,94473.97
2023-11-01T15:28:36.969Z,94476.19
2023-11-01T15:30:39.195Z,94474.97
2023-11-01T15:32:41.394Z,94477.63
2023-11-01T15:34:44.321Z,94481.84
2023-11-01T15:36:48.962Z,94482.28
2023-11-01T15:38:51.207Z,94477.16
2023-11-01T15:40:54.082Z,94478.16
2023-11-01T15:42:55.983Z,94476.09
2023-11-01T15:44:58.165Z,94477.75
2023-11-01T15:46:59.920Z,94460.66
2023-11-01T15:49:02.627Z,94473.03
2023-11-01T15:51:04.799Z,94475.28
2023-11-01T15:53:06.508Z,94479.09
2023-11-01T15:55:09.775Z,94490.91
2023-11-01T15:57:14.165Z,94497.84
2023-11-01T15:59:16.535Z,94497.66
2023-11-01T16:01:21.449Z,94487.03
2023-11-01T16:03:23.202Z,94502.69
2023-11-01T16:05:26.205Z,94498.41
2023-11-01T16:07:30.535Z,94502.06
2023-11-01T16:09:35.352Z,94505.50
2023-11-01T16:11:38.404Z,94509.59
2023-11-01T16:13:42.315Z,94498.63
2023-11-01T16:15:44.484Z,94500.66
2023-11-01T16:17:46.777Z,94502.28
2023-11-01T16:19:48.917Z,94503.09
2023-11-01T16:21:50.872Z,94510.63
2023-11-01T16:23:55.975Z,94513.25
2023-11-01T16:25:57.991Z,94508.97
2023-11-01T16:28:00.126Z,94504.88
2023-11-01T16:30:02.358Z,94513.78
2023-11-01T16:32:04.809Z,94507.88
2023-11-01T16:34:06.779Z,94518.47
2023-11-01T16:36:08.969Z,94521.09
2023-11-01T16:38:11.137Z,94515.38
2023-11-01T16:40:13.695Z,94530.03
2023-11-01T16:42:17.297Z,94517.03
2023-11-01T16:44:19.123Z,94522.31
2023-11-01T16:46:21.051Z,94521.88
2023-11-01T16:48:22.839Z,94513.94
2023-11-01T16:50:24.716Z,94513.69
2023-11-01T16:52:26.822Z,94509.59
2023-11-01T16:54:29.358Z,94506.09
2023-11-01T16:56:31.977Z,94499.34
2023-11-01T16:58:33.698Z,94498.09
2023-11-01T17:00:38.019Z,94486.91
2023-11-01T17:02:47.892Z,94484.25
2023-11-01T17:04:53.026Z,94492.16
2023-11-01T17:06:55.184Z,94496.25
2023-11-01T17:08:56.988Z,94489.31
2023-11-01T17:10:58.905Z,94489.94
2023-11-01T17:13:01.552Z,94492.78
2023-11-01T17:15:05.304Z,94490.13
2023-11-01T17:17:09.227Z,94484.63
2023-11-01T17:19:11.088Z,94490.53
2023-11-01T17:21:15.179Z,94491.94
2023-11-01T17:23:16.835Z,94488.13
2023-11-01T17:25:46.588Z,94487.53
2023-11-01T17:27:48.255Z,94490.81
2023-11-01T17:29:51.787Z,94485.94
2023-11-01T17:31:53.736Z,94481.28
2023-11-01T17:33:56.053Z,94482.09
2023-11-01T17:35:57.752Z,94494.91
2023-11-01T17:38:21.239Z,94485.16
2023-11-01T17:40:23.436Z,94486.19
2023-11-01T17:42:25.088Z,94488.81
2023-11-01T17:44:32.378Z,94490.03
2023-11-01T17:46:34.182Z,94495.31
2023-11-01T17:48:36.019Z,94489.81
2023-11-01T17:50:37.864Z,94496.94
2023-11-01T17:52:42.586Z,94482.69
2023-11-01T17:54:44.200Z,94484.53
2023-11-01T17:56:46.373Z,94474.38
2023-11-01T17:58:55.822Z,94468.47
2023-11-01T18:00:57.700Z,94472.94
2023-11-01T18:03:18.065Z,94469.25
2023-11-01T18:05:36.801Z,94474.09
2023-11-01T18:07:42.329Z,94470.47
2023-11-01T18:09:44.158Z,94469.44
2023-11-01T18:11:46.497Z,94459.91
2023-11-01T18:13:48.311Z,94460.72
2023-11-01T18:15:52.710Z,94455.88
2023-11-01T18:17:55.552Z,94457.47
2023-11-01T18:19:58.321Z,94464.41
2023-11-01T18:22:00.158Z,94460.13
2023-11-01T18:24:13.609Z,94458.69
2023-11-01T18:26:22.386Z,94458.25
2023-11-01T18:28:25.497Z,94457.84
2023-11-01T18:30:28.435Z,94452.13
2023-11-01T18:32:30.202Z,94452.75
2023-11-01T18:34:37.571Z,94457.41
2023-11-01T18:36:48.682Z,94453.72
2023-11-01T18:38:58.642Z,94449.66
2023-11-01T18:41:04.109Z,94452.09
2023-11-01T18:43:06.363Z,94449.66
2023-11-01T18:45:13.990Z,94457.16
2023-11-01T18:47:18.450Z,94456.31
2023-11-01T18:50:01.700Z,94451.03
2023-11-01T18:52:08.336Z,94454.88
2023-11-01T18:54:10.646Z,94449.00
2023-11-01T18:56:14.152Z,94453.81
2023-11-01T18:58:15.878Z,94442.47
2023-11-01T19:00:29.629Z,94446.94
2023-11-01T19:02:39.559Z,94446.31
2023-11-01T19:04:41.279Z,94447.53
2023-11-01T19:06:44.876Z,94450.34
2023-11-01T19:08:46.920Z,94446.22
2023-11-01T19:10:50.766Z,94449.22
2023-11-01T19:12:56.275Z,94448.59
2023-11-01T19:14:58.868Z,94444.44
2023-11-01T19:17:01.616Z,94446.84
2023-11-01T19:19:03.749Z,94448.06
2023-11-01T19:21:06.017Z,94444.59
2023-11-01T19:23:08.056Z,94446.03
2023-11-01T19:25:11.224Z,94446.66
2023-11-01T19:27:18.424Z,94450.94
2023-11-01T19:29:26.540Z,94449.28
2023-11-01T19:31:31.281Z,94444.41
2023-11-01T19:33:34.197Z,94451.25
2023-11-01T19:35:36.556Z,94451.19
2023-11-01T19:37:41.814Z,94451.59
2023-11-01T19:39:45.050Z,94448.31
2023-11-01T19:41:47.164Z,94443.41
2023-11-01T19:43:50.131Z,94442.28
2023-11-01T19:45:54.266Z,94448.66
2023-11-01T19:47:56.430Z,94446.22
2023-11-01T19:49:58.927Z,94452.75
2023-11-01T19:52:00.674Z,94454.00
2023-11-01T19:54:04.221Z,94457.06
2023-11-01T19:56:06.908Z,94455.25
2023-11-01T19:58:08.761Z,94448.19
2023-11-01T20:00:13.002Z,94449.38
2023-11-01T20:02:15.311Z,94447.66
2023-11-01T20:04:17.983Z,94451.06
2023-11-01T20:06:21.233Z,94448.88
2023-11-01T20:08:22.939Z,94446.41
2023-11-01T20:10:26.479Z,94449.69
2023-11-01T20:12:31.351Z,94443.16
2023-11-01T20:14:34.664Z,94445.84
2023-11-01T20:16:38.524Z,94443.59
2023-11-01T20:18:40.368Z,94442.28
2023-11-01T20:20:44.784Z,94439.53
2023-11-01T20:22:46.599Z,94444.91
2023-11-01T20:24:48.822Z,94446.78
2023-11-01T20:26:51.417Z,94439.88
2023-11-01T20:28:54.137Z,94433.47
2023-11-01T20:30:56.342Z,94434.81
2023-11-01T20:32:58.319Z,94430.63
2023-11-01T20:35:01.352Z,94432.72
2023-11-01T20:37:04.089Z,94430.28
2023-11-01T20:39:06.735Z,94433.84
2023-11-01T20:41:11.045Z,94432.56
2023-11-01T20:43:12.739Z,94427.75
2023-11-01T20:45:15.398Z,94428.13
2023-11-01T20:47:19.228Z,94425.13
2023-11-01T20:49:20.907Z,94420.09
2023-11-01T20:51:23.408Z,94422.19
2023-11-01T20:53:25.138Z,94421.81
2023-11-01T20:55:29.774Z,94415.28
2023-11-01T20:57:34.440Z,94414.59
2023-11-01T20:59:37.625Z,94420.41
2023-11-01T21:01:40.666Z,94414.78
2023-11-01T21:03:42.521Z,94406.69
2023-11-01T21:05:44.289Z,94407.88
2023-11-01T21:07:46.843Z,94409.97
2023-11-01T21:09:48.930Z,94405.50
2023-11-01T21:11:50.699Z,94400.22
2023-11-01T21:13:53.456Z,94401.22
2023-11-01T21:15:57.698Z,94400.88
2023-11-01T21:17:59.570Z,94396.22
2023-11-01T21:20:01.429Z,94397.22
2023-11-01T21:22:03.306Z,94394.22
2023-11-01T21:24:05.707Z,94394.63
2023-11-01T21:26:10.551Z,94397.09
2023-11-01T21:28:12.561Z,94397.09
2023-11-01T21:30:14.845Z,94384.94
2023-11-01T21:32:17.148Z,94386.56
2023-11-01T21:34:19.133Z,94378.66
2023-11-01T21:36:21.122Z,94379.84
2023-11-01T21:38:22.802Z,94376.78
2023-11-01T21:40:24.811Z,94391.69
2023-11-01T21:42:27.122Z,94384.44
2023-11-01T21:44:40.041Z,94375.09
2023-11-01T21:46:42.853Z,94384.44
2023-11-01T21:48:45.280Z,94376.34
2023-11-01T21:50:58.649Z,94375.66
2023-11-01T21:53:00.539Z,94387.56
2023-11-01T21:55:11.423Z,94377.22
2023-11-01T21:57:13.662Z,94383.56
2023-11-01T21:59:17.654Z,94374.47
2023-11-01T22:01:22.422Z,94370.25
2023-11-01T22:03:38.111Z,94365.81
2023-11-01T22:05:40.022Z,94363.47
2023-11-01T22:07:41.837Z,94367.66
2023-11-01T22:09:47.932Z,94370.84
2023-11-01T22:11:52.123Z,94362.09
2023-11-01T22:13:54.008Z,94363.78
2023-11-01T22:15:55.822Z,94366.50
2023-11-01T22:17:57.773Z,94378.22
2023-11-01T22:19:59.728Z,94370.13
2023-11-01T22:22:06.436Z,94377.47
2023-11-01T22:24:09.935Z,94373.03
2023-11-01T22:26:18.641Z,94373.03
2023-11-01T22:28:20.238Z,94377.09
2023-11-01T22:30:21.995Z,94375.03
2023-11-01T22:32:24.806Z,94368.84
2023-11-01T22:34:30.227Z,94368.44
2023-11-01T22:36:37.218Z,94370.13
2023-11-01T22:38:39.227Z,94369.69
2023-11-01T22:40:43.305Z,94375.22
2023-11-01T22:42:46.253Z,94370.78
2023-11-01T22:44:49.442Z,94367.53
2023-11-01T22:46:51.388Z,94359.44
2023-11-01T22:48:53.079Z,94368.16
2023-11-01T22:50:54.847Z,94361.81
2023-11-01T22:52:56.864Z,94350.41
2023-11-01T22:54:58.647Z,94338.88
2023-11-01T22:57:00.697Z,94329.72
2023-11-01T22:59:02.611Z,94321.19
2023-11-01T23:01:05.035Z,94317.19
2023-11-01T23:03:07.330Z,94320.28
2023-11-01T23:05:10.068Z,94315.44
2023-11-01T23:07:11.897Z,94306.50
2023-11-01T23:09:14.099Z,94305.66
2023-11-01T23:11:16.232Z,94298.97
2023-11-01T23:13:18.348Z,94301.41
2023-11-01T23:15:20.083Z,94293.34
2023-11-01T23:17:21.890Z,94286.19
2023-11-01T23:19:25.727Z,94282.22
2023-11-01T23:21:29.219Z,94279.69
2023-11-01T23:23:32.128Z,94289.19
2023-11-01T23:25:35.786Z,94285.16
2023-11-01T23:27:37.529Z,94282.88
2023-11-01T23:29:40.110Z,94281.91
2023-11-01T23:31:46.680Z,94274.06
2023-11-01T23:33:48.813Z,94270.03
2023-11-01T23:35:53.305Z,94275.06
2023-11-01T23:37:56.339Z,94274.13
2023-11-01T23:39:57.944Z,94274.84
2023-11-01T23:41:59.959Z,94276.50
2023-11-01T23:44:03.670Z,94281.69
2023-11-01T23:46:17.535Z,94286.72
2023-11-01T23:48:21.129Z,94287.75
2023-11-01T23:50:47.447Z,94285.47
2023-11-01T23:52:49.723Z,94283.03
2023-11-01T23:54:53.530Z,94285.91
2023-11-01T23:56:55.325Z,94291.41
2023-11-01T23:58:57.032Z,94294.41
